createdAt,value
2022-12-11T00:00:59.210Z,11.77
2022-12-11T00:02:10.844Z,9.63
2022-12-11T00:03:22.358Z,12.85
2022-12-11T00:04:33.933Z,10.70
2022-12-11T00:05:45.815Z,9.82
2022-12-11T00:06:57.312Z,8.60
2022-12-11T00:08:08.754Z,7.63
2022-12-11T00:09:20.788Z,5.53
2022-12-11T00:10:36.247Z,14.90
2022-12-11T00:11:49.313Z,12.57
2022-12-11T00:13:00.717Z,11.93
2022-12-11T00:14:13.095Z,14.10
2022-12-11T00:15:24.518Z,8.02
2022-12-11T00:16:36.081Z,10.10
2022-12-11T00:17:47.620Z,10.17
2022-12-11T00:18:59.068Z,17.30
2022-12-11T00:20:10.782Z,9.23
2022-12-11T00:21:22.199Z,9.03
2022-12-11T00:22:33.972Z,17.07
2022-12-11T00:23:45.477Z,10.93
2022-12-11T00:24:57.001Z,5.53
2022-12-11T00:26:09.707Z,8.43
2022-12-11T00:27:21.177Z,6.17
2022-12-11T00:28:32.629Z,10.23
2022-12-11T00:29:44.258Z,18.73
2022-12-11T00:30:55.758Z,8.57
2022-12-11T00:32:07.257Z,8.67
2022-12-11T00:33:18.744Z,10.13
2022-12-11T00:34:30.183Z,9.17
2022-12-11T00:35:42.959Z,10.30
2022-12-11T00:36:54.446Z,6.80
2022-12-11T00:38:05.892Z,8.73
2022-12-11T00:39:17.441Z,16.90
2022-12-11T00:40:28.890Z,5.80
2022-12-11T00:41:40.327Z,7.68
2022-12-11T00:42:51.784Z,14.23
2022-12-11T00:44:04.454Z,14.30
2022-12-11T00:45:16.027Z,7.43
2022-12-11T00:46:27.433Z,10.32
2022-12-11T00:47:38.908Z,12.02
2022-12-11T00:48:50.308Z,16.77
2022-12-11T00:50:01.717Z,10.23
2022-12-11T00:51:13.368Z,12.43
2022-12-11T00:52:24.813Z,8.10
2022-12-11T00:53:37.246Z,19.07
2022-12-11T00:54:48.666Z,14.20
2022-12-11T00:56:00.085Z,11.93
2022-12-11T00:57:11.601Z,16.45
2022-12-11T00:58:23.317Z,7.97
2022-12-11T00:59:34.734Z,7.47
2022-12-11T01:00:48.299Z,9.15
2022-12-11T01:01:59.721Z,9.57
2022-12-11T01:03:13.174Z,6.63
2022-12-11T01:04:24.718Z,8.07
2022-12-11T01:05:36.699Z,7.55
2022-12-11T01:06:48.144Z,12.43
2022-12-11T01:07:59.958Z,11.07
2022-12-11T01:09:30.093Z,8.30
2022-12-11T01:10:41.649Z,10.63
2022-12-11T01:11:53.216Z,5.13
2022-12-11T01:13:05.846Z,6.87
2022-12-11T01:14:17.300Z,8.97
2022-12-11T01:15:30.723Z,13.18
2022-12-11T01:16:42.167Z,11.63
2022-12-11T01:17:53.756Z,5.10
2022-12-11T01:19:05.215Z,10.75
2022-12-11T01:20:17.354Z,6.13
2022-12-11T01:21:28.903Z,7.88
2022-12-11T01:22:40.314Z,5.30
2022-12-11T01:23:51.779Z,10.75
2022-12-11T01:25:03.658Z,4.60
2022-12-11T01:26:15.514Z,3.93
2022-12-11T01:27:26.957Z,11.85
2022-12-11T01:28:38.426Z,6.32
2022-12-11T01:29:49.872Z,10.03
2022-12-11T01:31:01.539Z,7.40
2022-12-11T01:32:13.009Z,5.55
2022-12-11T01:33:24.404Z,11.00
2022-12-11T01:34:35.930Z,8.55
2022-12-11T01:35:47.424Z,7.65
2022-12-11T01:36:59.075Z,12.00
2022-12-11T01:38:10.502Z,9.30
2022-12-11T01:39:21.962Z,10.63
2022-12-11T01:40:33.439Z,10.27
2022-12-11T01:41:44.910Z,8.18
2022-12-11T01:42:56.358Z,11.95
2022-12-11T01:44:27.739Z,8.80
2022-12-11T01:45:40.239Z,13.32
2022-12-11T01:46:51.737Z,9.13
2022-12-11T01:48:14.219Z,5.15
2022-12-11T01:49:27.017Z,5.93
2022-12-11T01:50:41.138Z,14.03
2022-12-11T01:51:57.745Z,5.70
2022-12-11T01:53:10.397Z,12.03
2022-12-11T01:54:22.608Z,11.93
2022-12-11T01:55:34.448Z,9.00
2022-12-11T01:56:46.570Z,13.43
2022-12-11T01:57:58.296Z,9.53
2022-12-11T01:59:10.257Z,10.23
2022-12-11T02:00:21.898Z,8.50
2022-12-11T02:01:52.639Z,7.03
2022-12-11T02:03:04.184Z,9.87
2022-12-11T02:04:15.965Z,12.77
2022-12-11T02:05:27.397Z,12.13
2022-12-11T02:06:40.505Z,20.27
2022-12-11T02:07:54.067Z,16.50
2022-12-11T02:09:07.766Z,15.97
2022-12-11T02:10:19.331Z,9.27
2022-12-11T02:11:40.551Z,9.63
2022-12-11T02:13:03.697Z,14.37
2022-12-11T02:14:30.048Z,14.20
2022-12-11T02:15:50.223Z,5.50
2022-12-11T02:17:07.821Z,31.00
2022-12-11T02:18:22.061Z,15.67
2022-12-11T02:19:53.832Z,9.73
2022-12-11T02:21:18.857Z,16.23
2022-12-11T02:22:36.220Z,9.63
2022-12-11T02:24:06.310Z,8.47
2022-12-11T02:25:20.812Z,17.57
2022-12-11T02:26:51.351Z,12.60
2022-12-11T02:28:11.847Z,13.53
2022-12-11T02:29:26.149Z,7.70
2022-12-11T02:30:39.848Z,11.47
2022-12-11T02:31:54.314Z,16.10
2022-12-11T02:33:07.234Z,11.20
2022-12-11T02:34:21.675Z,9.70
2022-12-11T02:35:34.723Z,12.67
2022-12-11T02:36:50.158Z,14.57
2022-12-11T02:38:07.333Z,11.70
2022-12-11T02:39:19.146Z,11.40
2022-12-11T02:40:32.759Z,15.50
2022-12-11T02:41:48.117Z,5.63
2022-12-11T02:43:01.693Z,10.77
2022-12-11T02:44:14.675Z,12.30
2022-12-11T02:45:27.585Z,9.63
2022-12-11T02:46:40.169Z,15.43
2022-12-11T02:47:52.579Z,8.07
2022-12-11T02:49:05.270Z,11.13
2022-12-11T02:50:18.061Z,11.37
2022-12-11T02:51:32.188Z,9.73
2022-12-11T02:52:44.871Z,8.50
2022-12-11T02:53:57.987Z,15.57
2022-12-11T02:55:11.206Z,9.67
2022-12-11T02:56:25.709Z,8.87
2022-12-11T02:58:03.760Z,11.00
2022-12-11T02:59:24.630Z,12.43
2022-12-11T03:00:36.297Z,4.80
2022-12-11T03:01:48.001Z,9.47
2022-12-11T03:02:59.489Z,12.93
2022-12-11T03:04:11.008Z,11.63
2022-12-11T03:05:22.477Z,7.70
2022-12-11T03:06:38.994Z,6.47
2022-12-11T03:07:50.627Z,11.87
2022-12-11T03:09:02.153Z,25.50
2022-12-11T03:10:15.585Z,13.53
2022-12-11T03:11:27.058Z,5.80
2022-12-11T03:12:40.482Z,6.30
2022-12-11T03:13:52.664Z,8.87
2022-12-11T03:15:07.186Z,9.90
2022-12-11T03:16:37.480Z,8.90
2022-12-11T03:18:00.966Z,9.20
2022-12-11T03:19:27.931Z,10.20
2022-12-11T03:20:47.623Z,10.00
2022-12-11T03:22:17.197Z,7.97
2022-12-11T03:23:32.324Z,7.70
2022-12-11T03:24:43.741Z,8.40
2022-12-11T03:25:55.249Z,10.57
2022-12-11T03:27:15.584Z,4.50
2022-12-11T03:28:29.859Z,11.07
2022-12-11T03:29:46.262Z,6.53
2022-12-11T03:30:58.247Z,6.07
2022-12-11T03:32:14.592Z,8.93
2022-12-11T03:33:29.601Z,4.27
2022-12-11T03:34:45.239Z,5.83
2022-12-11T03:35:59.775Z,4.93
2022-12-11T03:37:13.027Z,5.93
2022-12-11T03:38:27.905Z,8.83
2022-12-11T03:39:43.354Z,3.40
2022-12-11T03:40:56.325Z,4.60
2022-12-11T03:42:10.224Z,11.63
2022-12-11T03:43:22.448Z,3.63
2022-12-11T03:44:34.997Z,3.47
2022-12-11T03:45:47.983Z,4.00
2022-12-11T03:47:00.983Z,4.00
2022-12-11T03:48:13.589Z,2.87
2022-12-11T03:49:27.948Z,1.83
2022-12-11T03:50:40.108Z,3.53
2022-12-11T03:51:52.124Z,4.43
2022-12-11T03:53:04.140Z,1.77
2022-12-11T03:54:16.496Z,3.90
2022-12-11T03:55:28.316Z,3.93
2022-12-11T03:56:41.403Z,3.10
2022-12-11T03:57:52.857Z,1.23
2022-12-11T03:59:04.517Z,2.07
2022-12-11T04:00:18.053Z,4.03
2022-12-11T04:01:29.487Z,1.87
2022-12-11T04:02:41.804Z,1.17
2022-12-11T04:03:53.358Z,3.10
2022-12-11T04:05:05.158Z,1.87
2022-12-11T04:06:16.579Z,2.90
2022-12-11T04:07:28.677Z,2.30
2022-12-11T04:08:40.132Z,3.77
2022-12-11T04:09:51.526Z,7.03
2022-12-11T04:11:22.462Z,3.03
2022-12-11T04:12:33.906Z,3.80
2022-12-11T04:13:45.385Z,4.90
2022-12-11T04:15:02.664Z,1.33
2022-12-11T04:16:14.175Z,6.57
2022-12-11T04:17:44.381Z,3.00
2022-12-11T04:19:14.149Z,4.93
2022-12-11T04:20:44.036Z,6.10
2022-12-11T04:22:13.865Z,4.87
2022-12-11T04:23:43.901Z,9.20
2022-12-11T04:24:55.400Z,6.77
2022-12-11T04:26:11.425Z,8.03
2022-12-11T04:27:41.976Z,7.07
2022-12-11T04:28:53.408Z,12.87
2022-12-11T04:30:06.003Z,8.00
2022-12-11T04:31:19.559Z,7.93
2022-12-11T04:32:31.001Z,5.83
2022-12-11T04:33:42.398Z,4.53
2022-12-11T04:34:53.820Z,2.90
2022-12-11T04:36:05.362Z,6.77
2022-12-11T04:37:16.837Z,7.30
2022-12-11T04:38:28.257Z,4.73
2022-12-11T04:39:39.673Z,4.47
2022-12-11T04:40:57.327Z,6.13
2022-12-11T04:42:08.772Z,6.43
2022-12-11T04:43:20.190Z,6.23
2022-12-11T04:44:33.424Z,2.43
2022-12-11T04:45:44.832Z,6.93
2022-12-11T04:46:56.238Z,3.83
2022-12-11T04:48:08.593Z,6.73
2022-12-11T04:49:20.010Z,3.63
2022-12-11T04:50:31.492Z,2.23
2022-12-11T04:51:42.914Z,5.67
2022-12-11T04:52:55.138Z,4.20
2022-12-11T04:54:06.567Z,6.30
2022-12-11T04:55:18.088Z,1.90
2022-12-11T04:56:29.537Z,5.70
2022-12-11T04:57:41.132Z,3.67
2022-12-11T04:58:52.617Z,4.67
2022-12-11T05:00:05.747Z,8.40
2022-12-11T05:01:18.857Z,3.90
2022-12-11T05:02:30.538Z,2.47
2022-12-11T05:03:42.497Z,7.67
2022-12-11T05:04:53.919Z,6.67
2022-12-11T05:06:05.468Z,6.77
2022-12-11T05:07:16.866Z,166.33
2022-12-11T05:08:28.461Z,161.80
2022-12-11T05:09:39.892Z,111.13
2022-12-11T05:10:57.487Z,100.60
2022-12-11T05:12:09.277Z,190.50
2022-12-11T05:13:20.708Z,172.33
2022-12-11T05:14:32.548Z,137.40
2022-12-11T05:15:44.069Z,61.50
2022-12-11T05:16:55.517Z,65.73
2022-12-11T05:18:07.005Z,47.97
2022-12-11T05:19:18.465Z,35.17
2022-12-11T05:20:29.948Z,32.17
2022-12-11T05:21:41.362Z,30.40
2022-12-11T05:22:52.777Z,28.77
2022-12-11T05:24:04.527Z,22.83
2022-12-11T05:25:15.983Z,22.30
2022-12-11T05:26:27.489Z,15.37
2022-12-11T05:27:38.929Z,12.83
2022-12-11T05:28:54.385Z,21.73
2022-12-11T05:30:06.261Z,23.87
2022-12-11T05:31:19.158Z,19.50
2022-12-11T05:32:30.804Z,17.00
2022-12-11T05:33:42.474Z,13.90
2022-12-11T05:34:53.881Z,19.40
2022-12-11T05:36:06.360Z,15.13
2022-12-11T05:37:17.822Z,10.73
2022-12-11T05:38:29.391Z,6.97
2022-12-11T05:39:40.820Z,7.83
2022-12-11T05:41:12.404Z,7.03
2022-12-11T05:42:28.614Z,9.43
2022-12-11T05:43:40.368Z,8.43
2022-12-11T05:44:51.771Z,8.90
2022-12-11T05:46:11.091Z,3.20
2022-12-11T05:47:22.637Z,2.28
2022-12-11T05:48:34.630Z,3.53
2022-12-11T05:49:47.837Z,4.57
2022-12-11T05:50:59.928Z,3.17
2022-12-11T05:52:11.340Z,3.07
2022-12-11T05:53:22.780Z,3.93
2022-12-11T05:54:34.185Z,2.43
2022-12-11T05:55:45.656Z,7.97
2022-12-11T05:56:57.064Z,22.00
2022-12-11T05:58:08.532Z,29.77
2022-12-11T05:59:20.019Z,13.93
2022-12-11T06:00:35.852Z,10.23
2022-12-11T06:01:47.759Z,7.73
2022-12-11T06:02:59.406Z,4.70
2022-12-11T06:04:12.442Z,4.10
2022-12-11T06:05:23.888Z,3.17
2022-12-11T06:06:35.866Z,2.87
2022-12-11T06:07:47.311Z,2.57
2022-12-11T06:08:59.102Z,23.10
2022-12-11T06:10:10.798Z,23.27
2022-12-11T06:11:24.347Z,29.53
2022-12-11T06:12:36.286Z,17.50
2022-12-11T06:13:47.861Z,12.77
2022-12-11T06:14:59.367Z,12.75
2022-12-11T06:16:10.886Z,14.38
2022-12-11T06:17:22.360Z,16.02
2022-12-11T06:18:40.797Z,10.70
2022-12-11T06:19:52.280Z,13.23
2022-12-11T06:21:10.660Z,13.10
2022-12-11T06:22:22.083Z,20.85
2022-12-11T06:23:33.518Z,9.23
2022-12-11T06:24:44.979Z,11.53
2022-12-11T06:25:56.436Z,7.33
2022-12-11T06:27:08.242Z,6.80
2022-12-11T06:28:19.687Z,5.13
2022-12-11T06:29:31.234Z,4.13
2022-12-11T06:30:42.628Z,5.17
2022-12-11T06:31:54.146Z,2.03
2022-12-11T06:33:05.618Z,5.73
2022-12-11T06:34:17.131Z,5.13
2022-12-11T06:35:28.631Z,4.77
2022-12-11T06:36:40.265Z,5.43
2022-12-11T06:37:51.690Z,10.17
2022-12-11T06:39:03.222Z,11.60
2022-12-11T06:40:14.673Z,11.47
2022-12-11T06:41:26.214Z,5.40
2022-12-11T06:42:37.605Z,4.67
2022-12-11T06:43:49.052Z,2.60
2022-12-11T06:45:00.591Z,2.83
2022-12-11T06:46:13.921Z,2.57
2022-12-11T06:47:31.698Z,2.47
2022-12-11T06:48:43.657Z,5.27
2022-12-11T06:49:55.239Z,10.67
2022-12-11T06:51:07.817Z,8.50
2022-12-11T06:52:19.566Z,4.17
2022-12-11T06:53:30.993Z,3.87
2022-12-11T06:54:42.484Z,4.60
2022-12-11T06:55:53.881Z,4.20
2022-12-11T06:57:05.421Z,2.03
2022-12-11T06:58:16.853Z,4.13
2022-12-11T06:59:28.271Z,3.13
2022-12-11T07:00:39.783Z,1.70
2022-12-11T07:01:51.673Z,1.90
2022-12-11T07:03:04.051Z,3.77
2022-12-11T07:04:15.568Z,3.67
2022-12-11T07:05:27.017Z,1.90
2022-12-11T07:06:38.458Z,2.47
2022-12-11T07:07:49.989Z,2.90
2022-12-11T07:09:03.754Z,2.17
2022-12-11T07:10:15.411Z,3.27
2022-12-11T07:11:26.966Z,2.93
2022-12-11T07:12:38.424Z,1.20
2022-12-11T07:13:50.150Z,4.70
2022-12-11T07:15:01.663Z,6.37
2022-12-11T07:16:14.138Z,10.83
2022-12-11T07:17:25.990Z,15.70
2022-12-11T07:18:38.414Z,5.13
2022-12-11T07:19:49.811Z,4.60
2022-12-11T07:21:01.338Z,13.37
2022-12-11T07:22:12.762Z,33.57
2022-12-11T07:23:24.240Z,26.93
2022-12-11T07:24:35.733Z,17.43
2022-12-11T07:25:47.182Z,12.43
2022-12-11T07:26:58.603Z,8.43
2022-12-11T07:28:15.133Z,10.20
2022-12-11T07:29:28.174Z,3.63
2022-12-11T07:30:39.640Z,4.23
2022-12-11T07:31:51.274Z,5.20
2022-12-11T07:33:03.159Z,4.60
2022-12-11T07:34:14.724Z,6.60
2022-12-11T07:35:26.138Z,4.70
2022-12-11T07:36:37.794Z,9.60
2022-12-11T07:37:49.227Z,6.40
2022-12-11T07:39:00.979Z,12.70
2022-12-11T07:40:13.017Z,8.23
2022-12-11T07:41:24.603Z,5.63
2022-12-11T07:42:36.069Z,5.73
2022-12-11T07:43:48.052Z,8.33
2022-12-11T07:44:59.498Z,8.33
2022-12-11T07:46:14.899Z,4.60
2022-12-11T07:47:26.350Z,4.10
2022-12-11T07:48:38.901Z,4.73
2022-12-11T07:49:50.375Z,4.17
2022-12-11T07:51:28.242Z,3.20
2022-12-11T07:52:39.876Z,2.30
2022-12-11T07:53:51.951Z,7.20
2022-12-11T07:55:03.829Z,17.17
2022-12-11T07:56:15.918Z,10.13
2022-12-11T07:57:27.850Z,12.43
2022-12-11T07:58:39.578Z,11.43
2022-12-11T07:59:51.045Z,7.73
2022-12-11T08:01:02.617Z,12.03
2022-12-11T08:02:14.194Z,16.80
2022-12-11T08:03:25.617Z,5.73
2022-12-11T08:04:37.251Z,5.53
2022-12-11T08:05:49.822Z,7.13
2022-12-11T08:07:01.234Z,6.50
2022-12-11T08:08:13.947Z,3.73
2022-12-11T08:09:25.400Z,12.00
2022-12-11T08:10:37.005Z,9.40
2022-12-11T08:11:49.517Z,8.37
2022-12-11T08:13:00.934Z,6.07
2022-12-11T08:14:12.479Z,5.43
2022-12-11T08:15:23.973Z,7.07
2022-12-11T08:16:35.611Z,5.33
2022-12-11T08:17:47.080Z,7.13
2022-12-11T08:18:58.657Z,7.13
2022-12-11T08:20:11.654Z,7.33
2022-12-11T08:21:24.154Z,4.00
2022-12-11T08:22:35.630Z,7.70
2022-12-11T08:23:47.481Z,7.87
2022-12-11T08:24:58.937Z,11.73
2022-12-11T08:26:12.663Z,40.03
2022-12-11T08:27:24.113Z,14.33
2022-12-11T08:28:35.713Z,13.33
2022-12-11T08:29:47.534Z,5.20
2022-12-11T08:30:59.428Z,10.97
2022-12-11T08:32:12.590Z,5.40
2022-12-11T08:33:24.172Z,5.47
2022-12-11T08:34:35.713Z,5.67
2022-12-11T08:35:47.478Z,3.00
2022-12-11T08:36:58.973Z,6.60
2022-12-11T08:38:10.403Z,3.03
2022-12-11T08:39:21.970Z,7.17
2022-12-11T08:40:33.416Z,3.73
2022-12-11T08:41:44.878Z,4.77
2022-12-11T08:42:56.309Z,7.20
2022-12-11T08:44:16.035Z,2.47
2022-12-11T08:45:28.427Z,3.80
2022-12-11T08:46:39.974Z,3.00
2022-12-11T08:47:51.380Z,2.37
2022-12-11T08:49:02.879Z,4.90
2022-12-11T08:50:14.429Z,4.07
2022-12-11T08:51:28.088Z,8.17
2022-12-11T08:52:39.506Z,5.77
2022-12-11T08:53:51.416Z,4.83
2022-12-11T08:55:02.933Z,7.40
2022-12-11T08:56:15.475Z,4.37
2022-12-11T08:57:27.935Z,3.00
2022-12-11T08:58:39.345Z,1.03
2022-12-11T08:59:50.808Z,11.03
2022-12-11T09:01:06.524Z,5.93
2022-12-11T09:02:18.046Z,5.80
2022-12-11T09:03:29.580Z,12.27
2022-12-11T09:04:41.096Z,12.10
2022-12-11T09:05:52.501Z,11.80
2022-12-11T09:07:03.972Z,8.07
2022-12-11T09:08:15.435Z,9.47
2022-12-11T09:09:26.957Z,8.97
2022-12-11T09:10:38.419Z,5.77
2022-12-11T09:11:49.857Z,8.93
2022-12-11T09:13:01.291Z,5.80
2022-12-11T09:14:12.722Z,10.37
2022-12-11T09:15:24.197Z,4.40
2022-12-11T09:16:37.847Z,3.57
2022-12-11T09:17:49.334Z,4.10
2022-12-11T09:19:00.793Z,4.80
2022-12-11T09:20:12.196Z,6.43
2022-12-11T09:21:25.567Z,2.03
2022-12-11T09:22:37.096Z,4.70
2022-12-11T09:23:48.636Z,3.03
2022-12-11T09:25:00.182Z,6.53
2022-12-11T09:26:13.012Z,2.37
2022-12-11T09:27:24.543Z,1.43
2022-12-11T09:28:36.810Z,4.87
2022-12-11T09:29:49.399Z,4.73
2022-12-11T09:31:00.906Z,1.80
2022-12-11T09:32:12.505Z,3.93
2022-12-11T09:33:24.035Z,3.73
2022-12-11T09:34:35.558Z,8.77
2022-12-11T09:35:47.045Z,3.20
2022-12-11T09:36:58.507Z,9.67
2022-12-11T09:38:10.385Z,3.90
2022-12-11T09:39:21.850Z,12.90
2022-12-11T09:40:33.379Z,2.13
2022-12-11T09:41:56.931Z,5.30
2022-12-11T09:43:31.592Z,4.93
2022-12-11T09:44:45.921Z,6.63
2022-12-11T09:45:57.762Z,3.83
2022-12-11T09:47:27.907Z,6.57
2022-12-11T09:48:41.706Z,7.37
2022-12-11T09:50:11.699Z,3.13
2022-12-11T09:51:42.177Z,8.77
2022-12-11T09:52:56.662Z,3.83
2022-12-11T09:54:11.014Z,6.27
2022-12-11T09:55:27.357Z,18.80
2022-12-11T09:56:56.597Z,14.57
2022-12-11T09:58:19.678Z,5.97
2022-12-11T09:59:51.385Z,5.40
2022-12-11T10:01:09.772Z,7.43
2022-12-11T10:02:24.456Z,1.30
2022-12-11T10:03:38.941Z,5.90
2022-12-11T10:04:55.898Z,6.07
2022-12-11T10:06:07.364Z,10.13
2022-12-11T10:07:37.319Z,8.57
2022-12-11T10:09:15.135Z,9.77
2022-12-11T10:10:36.232Z,8.40
2022-12-11T10:11:58.493Z,9.13
2022-12-11T10:13:24.964Z,9.80
2022-12-11T10:14:42.921Z,6.60
2022-12-11T10:15:56.572Z,13.10
2022-12-11T10:17:12.525Z,14.73
2022-12-11T10:18:25.985Z,13.23
2022-12-11T10:19:37.943Z,6.47
2022-12-11T10:20:50.212Z,10.37
2022-12-11T10:22:02.341Z,10.70
2022-12-11T10:23:19.301Z,14.40
2022-12-11T10:26:17.615Z,7.60
2022-12-11T10:27:31.547Z,6.17
2022-12-11T10:28:43.049Z,11.23
2022-12-11T10:30:12.963Z,12.53
2022-12-11T10:31:27.485Z,5.27
2022-12-11T10:32:45.601Z,8.93
2022-12-11T10:34:12.287Z,3.60
2022-12-11T10:35:31.217Z,2.60
2022-12-11T10:36:43.294Z,16.97
2022-12-11T10:37:57.256Z,14.87
2022-12-11T10:39:21.744Z,5.63
2022-12-11T10:40:34.096Z,1.93
2022-12-11T10:41:46.755Z,3.47
2022-12-11T10:42:58.320Z,5.43
2022-12-11T10:44:19.972Z,7.63
2022-12-11T10:45:31.683Z,4.07
2022-12-11T10:46:43.240Z,2.20
2022-12-11T10:48:05.009Z,4.20
2022-12-11T10:49:26.525Z,13.10
2022-12-11T10:50:38.138Z,17.27
2022-12-11T10:51:50.269Z,23.30
2022-12-11T10:53:01.758Z,29.77
2022-12-11T10:54:33.866Z,21.00
2022-12-11T10:55:45.677Z,38.37
2022-12-11T10:56:58.036Z,28.77
2022-12-11T10:58:14.160Z,36.20
2022-12-11T10:59:43.767Z,37.03
2022-12-11T11:01:10.424Z,31.17
2022-12-11T11:02:24.547Z,9.07
2022-12-11T11:03:41.662Z,11.93
2022-12-11T11:04:54.436Z,15.67
2022-12-11T11:06:12.891Z,8.63
2022-12-11T11:07:25.719Z,5.70
2022-12-11T11:08:42.534Z,4.77
2022-12-11T11:10:13.565Z,4.80
2022-12-11T11:11:24.989Z,3.07
2022-12-11T11:12:49.251Z,3.33
2022-12-11T11:14:12.625Z,2.53
2022-12-11T11:15:28.261Z,2.33
2022-12-11T11:16:40.469Z,0.73
2022-12-11T11:17:55.859Z,11.03
2022-12-11T11:19:07.679Z,17.73
2022-12-11T11:20:20.253Z,16.83
2022-12-11T11:21:32.546Z,12.03
2022-12-11T11:22:49.523Z,6.70
2022-12-11T11:24:00.949Z,1.63
2022-12-11T11:25:16.966Z,3.03
2022-12-11T11:27:04.334Z,2.53
2022-12-11T11:28:16.495Z,0.97
2022-12-11T11:29:32.786Z,4.00
2022-12-11T11:30:55.437Z,3.33
2022-12-11T11:32:20.047Z,1.67
2022-12-11T11:33:32.153Z,0.87
2022-12-11T11:34:43.585Z,3.23
2022-12-11T11:35:57.025Z,1.50
2022-12-11T11:37:28.770Z,3.47
2022-12-11T11:38:49.080Z,4.20
2022-12-11T11:40:06.362Z,0.60
2022-12-11T11:41:21.429Z,1.40
2022-12-11T11:42:41.482Z,1.37
2022-12-11T11:44:00.973Z,4.70
2022-12-11T11:45:16.922Z,2.37
2022-12-11T11:46:36.736Z,4.43
2022-12-11T11:47:56.442Z,4.63
2022-12-11T11:49:07.909Z,0.73
2022-12-11T11:50:22.101Z,2.50
2022-12-11T11:51:45.821Z,2.90
2022-12-11T11:52:57.292Z,5.97
2022-12-11T11:54:20.813Z,6.23
2022-12-11T11:55:51.172Z,3.00
2022-12-11T11:57:12.542Z,5.00
2022-12-11T11:58:31.577Z,4.40
2022-12-11T11:59:47.201Z,1.20
2022-12-11T12:00:58.685Z,2.83
2022-12-11T12:02:15.282Z,3.93
2022-12-11T12:03:28.582Z,2.73
2022-12-11T12:04:40.022Z,3.37
2022-12-11T12:05:51.508Z,3.30
2022-12-11T12:07:03.077Z,2.30
2022-12-11T12:08:14.622Z,2.50
2022-12-11T12:09:26.105Z,2.50
2022-12-11T12:10:43.715Z,3.77
2022-12-11T12:12:13.732Z,5.30
2022-12-11T12:13:49.223Z,2.10
2022-12-11T12:15:01.403Z,1.33
2022-12-11T12:18:24.010Z,1.17
2022-12-11T12:19:50.212Z,0.60
2022-12-11T12:21:01.665Z,1.03
2022-12-11T12:22:16.574Z,0.43
2022-12-11T12:23:40.806Z,0.70
2022-12-11T12:25:01.033Z,0.73
2022-12-11T12:26:21.574Z,0.60
2022-12-11T12:29:07.550Z,0.30
2022-12-11T12:30:22.891Z,0.50
2022-12-11T12:31:44.022Z,2.03
2022-12-11T12:33:04.428Z,2.37
2022-12-11T12:34:34.013Z,1.50
2022-12-11T12:35:54.114Z,1.10
2022-12-11T12:37:08.500Z,1.03
2022-12-11T12:38:26.531Z,2.47
2022-12-11T12:39:56.929Z,2.00
2022-12-11T12:41:20.607Z,3.87
2022-12-11T12:42:38.291Z,1.40
2022-12-11T12:44:00.600Z,2.50
2022-12-11T12:45:12.429Z,3.60
2022-12-11T12:46:43.963Z,3.20
2022-12-11T12:47:55.785Z,6.80
2022-12-11T12:49:10.902Z,10.97
2022-12-11T12:50:24.613Z,2.73
2022-12-11T12:51:38.439Z,10.23
2022-12-11T12:52:51.583Z,10.63
2022-12-11T12:54:06.679Z,5.87
2022-12-11T12:55:25.995Z,3.73
2022-12-11T12:56:38.121Z,11.60
2022-12-11T12:57:51.861Z,8.40
2022-12-11T12:59:03.545Z,7.83
2022-12-11T13:00:26.462Z,6.63
2022-12-11T13:01:38.274Z,10.43
2022-12-11T13:02:50.964Z,2.47
2022-12-11T13:04:04.118Z,3.13
2022-12-11T13:05:20.326Z,6.20
2022-12-11T13:06:31.940Z,7.93
2022-12-11T13:07:52.593Z,12.43
2022-12-11T13:09:25.363Z,16.43
2022-12-11T13:10:38.098Z,2.70
2022-12-11T13:11:54.607Z,4.67
2022-12-11T13:13:25.492Z,8.10
2022-12-11T13:14:37.047Z,7.38
2022-12-11T13:15:48.475Z,4.18
2022-12-11T13:17:06.024Z,3.30
2022-12-11T13:18:31.250Z,5.80
2022-12-11T13:19:43.004Z,7.67
2022-12-11T13:20:54.493Z,8.90
2022-12-11T13:22:14.933Z,6.88
2022-12-11T13:23:28.472Z,4.47
2022-12-11T13:24:50.033Z,3.83
2022-12-11T13:26:02.665Z,5.77
2022-12-11T13:27:24.627Z,6.47
2022-12-11T13:28:39.041Z,9.50
2022-12-11T13:29:50.560Z,10.43
2022-12-11T13:31:07.549Z,3.10
2022-12-11T13:32:18.981Z,21.60
2022-12-11T13:33:30.694Z,58.58
2022-12-11T13:34:44.308Z,19.17
2022-12-11T13:36:25.205Z,18.97
2022-12-11T13:37:44.248Z,4.28
2022-12-11T13:38:58.881Z,1.00
2022-12-11T13:40:19.623Z,0.80
2022-12-11T13:41:33.742Z,2.27
2022-12-11T13:43:05.774Z,0.40
2022-12-11T13:44:23.620Z,0.43
2022-12-11T13:45:49.006Z,3.28
2022-12-11T13:47:02.083Z,9.55
2022-12-11T13:48:19.335Z,10.65
2022-12-11T13:49:35.189Z,3.33
2022-12-11T13:50:47.185Z,2.40
2022-12-11T13:51:59.562Z,0.57
2022-12-11T13:53:15.669Z,0.20
2022-12-11T13:54:28.496Z,0.20
2022-12-11T13:55:40.128Z,0.50
2022-12-11T13:56:54.566Z,0.30
2022-12-11T13:58:15.610Z,0.32
2022-12-11T13:59:29.619Z,0.80
2022-12-11T14:00:41.995Z,0.75
2022-12-11T14:01:55.021Z,0.25
2022-12-11T14:03:09.465Z,5.85
2022-12-11T14:04:22.009Z,1.25
2022-12-11T14:05:34.514Z,1.77
2022-12-11T14:06:46.200Z,3.88
2022-12-11T14:07:59.221Z,16.90
2022-12-11T14:09:16.594Z,36.03
2022-12-11T14:10:29.673Z,9.37
2022-12-11T14:11:42.274Z,4.13
2022-12-11T14:12:57.201Z,5.57
2022-12-11T14:14:16.666Z,8.35
2022-12-11T14:15:29.208Z,12.88
2022-12-11T14:16:40.927Z,28.15
2022-12-11T14:17:53.193Z,55.13
2022-12-11T14:19:06.290Z,18.52
2022-12-11T14:20:22.898Z,6.97
2022-12-11T14:21:34.841Z,15.43
2022-12-11T14:22:46.275Z,47.88
2022-12-11T14:23:59.077Z,38.33
2022-12-11T14:25:19.059Z,37.53
2022-12-11T14:26:32.344Z,50.30
2022-12-11T14:27:47.639Z,66.15
2022-12-11T14:28:59.251Z,139.45
2022-12-11T14:30:11.836Z,48.75
2022-12-11T14:31:31.900Z,48.90
2022-12-11T14:32:45.166Z,118.53
2022-12-11T14:34:17.085Z,97.00
2022-12-11T14:35:38.602Z,49.60
2022-12-11T14:36:51.395Z,29.67
2022-12-11T14:38:05.751Z,13.60
2022-12-11T14:39:20.940Z,18.30
2022-12-11T14:40:37.256Z,12.85
2022-12-11T14:41:57.969Z,10.07
2022-12-11T14:43:12.355Z,25.15
2022-12-11T14:44:25.651Z,25.25
2022-12-11T14:45:39.189Z,25.30
2022-12-11T14:46:53.930Z,25.02
2022-12-11T14:48:11.008Z,11.13
2022-12-11T14:49:29.048Z,8.50
2022-12-11T14:50:51.258Z,8.10
2022-12-11T14:52:03.277Z,13.60
2022-12-11T14:53:17.527Z,12.80
2022-12-11T14:54:35.735Z,18.17
2022-12-11T14:55:48.059Z,31.15
2022-12-11T14:57:00.601Z,46.90
2022-12-11T14:58:15.774Z,45.17
2022-12-11T14:59:31.996Z,36.95
2022-12-11T15:00:43.812Z,43.70
2022-12-11T15:02:02.212Z,30.23
2022-12-11T15:03:17.442Z,21.58
2022-12-11T15:04:33.098Z,11.55
2022-12-11T15:05:52.440Z,27.73
2022-12-11T15:07:04.197Z,24.63
2022-12-11T15:08:24.907Z,13.15
2022-12-11T15:09:40.650Z,31.67
2022-12-11T15:10:58.087Z,40.42
2022-12-11T15:12:19.574Z,47.65
2022-12-11T15:13:31.795Z,82.75
2022-12-11T15:14:51.561Z,18.73
2022-12-11T15:16:04.906Z,12.40
2022-12-11T15:17:16.923Z,7.13
2022-12-11T15:18:33.712Z,11.77
2022-12-11T15:19:51.145Z,12.23
2022-12-11T15:21:03.979Z,7.18
2022-12-11T15:22:17.125Z,13.68
2022-12-11T15:23:29.464Z,17.55
2022-12-11T15:24:42.269Z,31.83
2022-12-11T15:25:55.558Z,58.08
2022-12-11T15:27:24.260Z,57.80
2022-12-11T15:28:36.964Z,22.58
2022-12-11T15:29:49.128Z,13.95
2022-12-11T15:31:02.544Z,10.05
2022-12-11T15:32:19.794Z,9.40
2022-12-11T15:33:34.628Z,9.45
2022-12-11T15:34:51.490Z,9.32
2022-12-11T15:36:06.116Z,12.43
2022-12-11T15:37:18.737Z,20.65
2022-12-11T15:38:30.586Z,14.43
2022-12-11T15:39:42.166Z,16.42
2022-12-11T15:40:53.704Z,20.77
2022-12-11T15:42:05.784Z,14.85
2022-12-11T15:43:17.382Z,6.33
2022-12-11T15:44:29.549Z,17.20
2022-12-11T15:45:44.051Z,20.85
2022-12-11T15:46:55.674Z,20.85
2022-12-11T15:48:08.824Z,26.55
2022-12-11T15:49:24.409Z,20.92
2022-12-11T15:50:36.252Z,17.95
2022-12-11T15:51:48.336Z,14.40
2022-12-11T15:53:00.038Z,19.47
2022-12-11T15:54:11.644Z,14.57
2022-12-11T15:55:23.933Z,8.88
2022-12-11T15:56:36.065Z,9.60
2022-12-11T15:57:51.234Z,11.50
2022-12-11T15:59:04.775Z,6.82
2022-12-11T16:00:18.696Z,9.57
2022-12-11T16:01:30.347Z,20.27
2022-12-11T16:02:42.047Z,22.90
2022-12-11T16:03:53.585Z,21.40
2022-12-11T16:05:05.273Z,12.00
2022-12-11T16:06:16.759Z,9.85
2022-12-11T16:07:28.249Z,5.50
2022-12-11T16:08:39.736Z,7.75
2022-12-11T16:09:51.246Z,5.35
2022-12-11T16:11:02.895Z,4.00
2022-12-11T16:12:14.419Z,3.90
2022-12-11T16:13:25.873Z,3.28
2022-12-11T16:14:40.181Z,3.43
2022-12-11T16:15:52.258Z,3.17
2022-12-11T16:17:04.770Z,4.13
2022-12-11T16:18:17.980Z,10.38
2022-12-11T16:19:29.389Z,9.00
2022-12-11T16:20:41.508Z,12.05
2022-12-11T16:21:53.400Z,7.77
2022-12-11T16:23:05.143Z,14.93
2022-12-11T16:24:16.666Z,12.97
2022-12-11T16:25:28.167Z,15.40